createdAt,value
2019-03-06T00:01:43.622Z,10.97
2019-03-06T00:06:47.891Z,4.13
2019-03-06T00:11:51.888Z,3.80
2019-03-06T00:16:56.037Z,5.47
2019-03-06T00:22:00.250Z,2.30
2019-03-06T00:27:04.872Z,3.87
2019-03-06T00:32:09.114Z,10.33
2019-03-06T00:37:12.939Z,3.30
2019-03-06T00:42:17.583Z,2.60
2019-03-06T00:47:22.114Z,3.50
2019-03-06T00:52:26.764Z,7.03
2019-03-06T00:57:31.190Z,3.90
2019-03-06T01:02:35.083Z,5.07
2019-03-06T01:07:39.191Z,6.37
2019-03-06T01:12:44.044Z,2.90
2019-03-06T01:17:47.962Z,4.43
2019-03-06T01:22:52.658Z,5.20
2019-03-06T01:27:56.859Z,3.13
2019-03-06T01:33:23.547Z,4.20
2019-03-06T01:38:59.147Z,4.67
2019-03-06T01:44:25.404Z,2.87
2019-03-06T01:49:29.797Z,6.30
2019-03-06T01:54:33.679Z,3.53
2019-03-06T01:59:38.186Z,4.77
2019-03-06T02:04:42.135Z,4.13
2019-03-06T02:09:46.416Z,5.27
2019-03-06T02:14:50.666Z,7.27
2019-03-06T02:19:54.583Z,4.57
2019-03-06T02:24:59.147Z,5.83
2019-03-06T02:30:03.068Z,6.27
2019-03-06T02:35:07.107Z,6.33
2019-03-06T02:40:11.226Z,5.57
2019-03-06T02:45:16.297Z,4.70
2019-03-06T02:50:20.448Z,7.37
2019-03-06T02:55:24.542Z,6.90
2019-03-06T03:00:53.743Z,8.37
2019-03-06T03:06:05.276Z,8.50
2019-03-06T03:11:09.224Z,7.87
2019-03-06T03:16:13.533Z,8.37
2019-03-06T03:21:17.699Z,5.87
2019-03-06T03:26:22.419Z,9.57
2019-03-06T03:31:27.158Z,6.23
2019-03-06T03:36:31.104Z,9.47
2019-03-06T03:41:35.471Z,9.07
2019-03-06T03:46:39.861Z,7.50
2019-03-06T03:51:44.396Z,9.40
2019-03-06T03:56:48.339Z,8.40
2019-03-06T04:01:52.375Z,8.73
2019-03-06T04:06:56.438Z,6.87
2019-03-06T04:12:00.721Z,10.60
2019-03-06T04:17:05.173Z,10.50
2019-03-06T04:22:09.116Z,7.27
2019-03-06T04:27:13.525Z,8.30
2019-03-06T04:32:17.756Z,7.43
2019-03-06T04:37:21.716Z,8.20
2019-03-06T04:42:25.748Z,8.67
2019-03-06T04:47:30.051Z,8.17
2019-03-06T04:52:33.928Z,7.53
2019-03-06T04:57:38.514Z,8.77
2019-03-06T05:02:42.535Z,8.80
2019-03-06T05:07:46.871Z,7.77
2019-03-06T05:12:51.110Z,9.13
2019-03-06T05:18:11.827Z,6.40
2019-03-06T05:23:15.703Z,6.03
2019-03-06T05:28:20.115Z,9.87
2019-03-06T05:33:24.152Z,6.53
2019-03-06T05:38:38.893Z,5.77
2019-03-06T05:43:43.359Z,6.30
2019-03-06T05:48:47.567Z,7.40
2019-03-06T05:53:51.515Z,7.72
2019-03-06T05:58:56.145Z,8.20
2019-03-06T06:04:00.338Z,11.60
2019-03-06T06:09:05.904Z,7.70
2019-03-06T06:14:10.475Z,6.20
2019-03-06T06:19:14.449Z,10.23
2019-03-06T06:24:24.577Z,6.63
2019-03-06T06:29:29.125Z,12.40
2019-03-06T06:34:33.874Z,6.63
2019-03-06T06:39:38.096Z,6.50
2019-03-06T06:44:42.764Z,11.33
2019-03-06T06:49:47.283Z,10.03
2019-03-06T06:55:11.479Z,12.63
2019-03-06T07:01:08.764Z,14.07
2019-03-06T07:06:20.185Z,9.10
2019-03-06T07:11:44.364Z,9.77
2019-03-06T07:17:04.555Z,10.90
2019-03-06T07:22:25.314Z,8.17
2019-03-06T07:27:54.947Z,9.27
2019-03-06T07:33:33.255Z,6.20
2019-03-06T07:38:37.715Z,9.63
2019-03-06T07:44:03.855Z,8.87
2019-03-06T07:49:32.687Z,15.47
2019-03-06T07:54:46.035Z,7.70
2019-03-06T07:59:50.350Z,6.23
2019-03-06T08:04:55.075Z,5.43
2019-03-06T08:09:59.051Z,7.87
2019-03-06T08:15:25.922Z,13.03
2019-03-06T08:20:49.247Z,8.90
2019-03-06T08:25:53.673Z,6.90
2019-03-06T08:31:05.296Z,10.77
2019-03-06T08:36:09.533Z,7.90
2019-03-06T08:41:13.955Z,9.00
2019-03-06T08:46:37.122Z,7.30
2019-03-06T08:52:03.496Z,7.73
2019-03-06T08:57:25.549Z,8.93
2019-03-06T09:02:39.204Z,3.80
2019-03-06T09:07:59.239Z,8.17
2019-03-06T09:13:19.012Z,3.80
2019-03-06T09:18:45.659Z,5.80
2019-03-06T09:24:21.137Z,7.50
2019-03-06T09:29:43.192Z,8.07
2019-03-06T09:35:09.418Z,4.63
2019-03-06T09:40:21.408Z,5.20
2019-03-06T09:45:31.668Z,7.90
2019-03-06T09:50:50.938Z,8.43
2019-03-06T09:56:12.827Z,7.23
2019-03-06T10:01:36.240Z,7.60
2019-03-06T10:07:14.455Z,4.57
2019-03-06T10:12:30.887Z,6.40
2019-03-06T10:17:45.392Z,4.73
2019-03-06T10:22:49.428Z,3.53
2019-03-06T10:27:53.730Z,8.93
2019-03-06T10:32:58.181Z,3.03
2019-03-06T10:38:02.597Z,4.03
2019-03-06T10:43:06.708Z,5.47
2019-03-06T10:48:11.047Z,4.87
2019-03-06T10:53:15.487Z,10.50
2019-03-06T10:58:19.672Z,3.17
2019-03-06T11:03:35.107Z,6.57
2019-03-06T11:08:48.558Z,3.13
2019-03-06T11:13:52.771Z,4.30
2019-03-06T11:18:57.171Z,2.57
2019-03-06T11:24:01.585Z,3.53
2019-03-06T11:29:07.364Z,2.13
2019-03-06T11:34:11.860Z,6.40
2019-03-06T11:39:15.960Z,5.87
2019-03-06T11:44:20.245Z,4.27
2019-03-06T11:49:24.575Z,8.17
2019-03-06T11:54:29.023Z,5.53
2019-03-06T11:59:33.152Z,2.10
2019-03-06T12:04:37.243Z,4.40
2019-03-06T12:09:41.528Z,5.53
2019-03-06T12:14:45.872Z,2.80
2019-03-06T12:19:50.371Z,7.20
2019-03-06T12:24:54.478Z,6.17
2019-03-06T12:29:58.747Z,4.33
2019-03-06T12:35:02.743Z,1.63
2019-03-06T12:40:12.241Z,6.10
2019-03-06T12:45:15.246Z,7.57
2019-03-06T12:50:21.572Z,2.20
2019-03-06T12:55:25.833Z,3.43
2019-03-06T13:00:29.956Z,7.23
2019-03-06T13:05:34.219Z,3.40
2019-03-06T13:10:38.555Z,4.97
2019-03-06T13:15:42.611Z,5.60
2019-03-06T13:20:46.823Z,5.60
2019-03-06T13:25:51.196Z,4.50
2019-03-06T13:30:55.468Z,5.87
2019-03-06T13:35:59.761Z,3.73
2019-03-06T13:41:04.148Z,3.10
2019-03-06T13:46:15.005Z,3.00
2019-03-06T13:51:24.780Z,1.67
2019-03-06T13:56:29.183Z,1.80
2019-03-06T14:01:33.447Z,3.80
2019-03-06T14:06:37.467Z,2.53
2019-03-06T14:11:41.661Z,3.13
2019-03-06T14:16:45.955Z,2.53
2019-03-06T14:21:50.420Z,3.00
2019-03-06T14:26:54.960Z,3.87
2019-03-06T14:31:59.172Z,2.10
2019-03-06T14:37:03.222Z,6.30
2019-03-06T14:42:07.343Z,2.13
2019-03-06T14:47:12.867Z,4.83
2019-03-06T14:52:17.172Z,3.40
2019-03-06T14:57:21.448Z,2.23
2019-03-06T15:02:25.855Z,2.47
2019-03-06T15:07:30.024Z,12.17
2019-03-06T15:12:34.431Z,23.70
2019-03-06T15:17:38.496Z,19.97
2019-03-06T15:22:42.544Z,8.60
2019-03-06T15:27:46.654Z,18.23
2019-03-06T15:32:51.023Z,6.80
2019-03-06T15:37:55.669Z,4.73
2019-03-06T15:43:00.067Z,9.13
2019-03-06T15:48:05.747Z,3.20
2019-03-06T15:53:10.896Z,5.37
2019-03-06T15:58:15.259Z,4.60
2019-03-06T16:03:19.630Z,2.90
2019-03-06T16:08:24.278Z,3.47
2019-03-06T16:13:28.390Z,3.90
2019-03-06T16:18:32.721Z,7.50
2019-03-06T16:23:37.139Z,3.53
2019-03-06T16:28:41.575Z,6.37
2019-03-06T16:33:45.907Z,11.73
2019-03-06T16:38:50.369Z,18.93
2019-03-06T16:43:54.405Z,11.87
2019-03-06T16:48:58.511Z,17.17
2019-03-06T16:54:02.783Z,10.13
2019-03-06T16:59:07.356Z,8.43
2019-03-06T17:04:11.242Z,14.57
2019-03-06T17:09:17.499Z,17.83
2019-03-06T17:14:21.900Z,12.07
2019-03-06T17:19:26.475Z,11.07
2019-03-06T17:24:30.547Z,13.40
2019-03-06T17:29:35.147Z,12.87
2019-03-06T17:34:39.147Z,17.80
2019-03-06T17:39:43.452Z,22.27
2019-03-06T17:44:47.458Z,17.60
2019-03-06T17:49:51.916Z,5.23
2019-03-06T17:54:55.995Z,7.50
2019-03-06T18:00:00.361Z,7.80
2019-03-06T18:05:04.655Z,4.40
2019-03-06T18:10:11.112Z,7.63
2019-03-06T18:15:15.568Z,8.30
2019-03-06T18:20:19.900Z,6.00
2019-03-06T18:25:24.438Z,5.43
2019-03-06T18:30:29.029Z,2.43
2019-03-06T18:35:33.163Z,3.90
2019-03-06T18:40:37.621Z,6.03
2019-03-06T18:45:41.899Z,75.50
2019-03-06T18:50:46.091Z,49.27
2019-03-06T18:55:50.572Z,53.90
2019-03-06T19:00:55.182Z,34.90
2019-03-06T19:05:59.594Z,31.00
2019-03-06T19:11:03.749Z,21.50
2019-03-06T19:16:07.864Z,10.77
2019-03-06T19:21:12.336Z,20.73
2019-03-06T19:26:17.040Z,14.03
2019-03-06T19:31:21.585Z,7.93
2019-03-06T19:36:25.946Z,9.00
2019-03-06T19:41:30.304Z,9.57
2019-03-06T19:46:34.605Z,9.53
2019-03-06T19:51:38.816Z,5.97
2019-03-06T19:56:43.116Z,5.97
2019-03-06T20:01:47.881Z,3.93
2019-03-06T20:06:52.203Z,4.80
2019-03-06T20:11:56.969Z,7.20
2019-03-06T20:17:01.350Z,4.87
2019-03-06T20:22:05.772Z,3.00
2019-03-06T20:27:10.086Z,3.17
2019-03-06T20:32:14.411Z,3.30
2019-03-06T20:37:18.672Z,3.53
2019-03-06T20:42:22.937Z,3.03
2019-03-06T20:47:29.414Z,2.50
2019-03-06T20:52:33.827Z,6.63
2019-03-06T20:57:38.116Z,6.57
2019-03-06T21:02:42.203Z,3.50
2019-03-06T21:07:46.315Z,2.50
2019-03-06T21:12:50.569Z,6.40
2019-03-06T21:17:54.747Z,2.63
2019-03-06T21:22:59.069Z,5.73
2019-03-06T21:28:03.492Z,4.40
2019-03-06T21:33:07.575Z,3.93
2019-03-06T21:38:11.607Z,3.90
2019-03-06T21:43:15.591Z,6.50
2019-03-06T21:48:19.866Z,3.80
2019-03-06T21:53:23.879Z,2.07
2019-03-06T21:58:29.527Z,4.73
2019-03-06T22:03:33.651Z,3.63
2019-03-06T22:08:37.852Z,7.40
2019-03-06T22:13:42.055Z,3.57
2019-03-06T22:18:46.242Z,4.27
2019-03-06T22:23:50.473Z,4.13
2019-03-06T22:28:54.511Z,5.33
2019-03-06T22:33:59.013Z,8.03
2019-03-06T22:39:03.007Z,5.17
2019-03-06T22:44:06.955Z,8.80
2019-03-06T22:49:10.819Z,3.83
2019-03-06T22:54:15.389Z,7.07
2019-03-06T22:59:19.424Z,5.43
2019-03-06T23:04:23.760Z,3.80
2019-03-06T23:09:27.986Z,5.60
2019-03-06T23:14:32.078Z,3.03
2019-03-06T23:19:36.416Z,5.80
2019-03-06T23:24:40.462Z,4.20
2019-03-06T23:29:44.739Z,5.50
2019-03-06T23:34:48.999Z,4.00
2019-03-06T23:39:53.315Z,4.60
2019-03-06T23:44:57.563Z,2.43
2019-03-06T23:50:01.762Z,3.53
2019-03-06T23:55:05.850Z,4.60
